createdAt,value
2022-10-26T00:02:35.000Z,100454.04
2022-10-26T00:07:35.000Z,100450.19
2022-10-26T00:12:35.000Z,100449.74
2022-10-26T00:17:35.000Z,100450.54
2022-10-26T00:22:34.000Z,100447.24
2022-10-26T00:27:35.000Z,100443.82
2022-10-26T00:32:34.000Z,100443.52
2022-10-26T00:37:35.000Z,100443.52
2022-10-26T00:42:35.000Z,100440.77
2022-10-26T00:47:35.000Z,100438.04
2022-10-26T00:52:35.000Z,100431.54
2022-10-26T00:57:34.000Z,100425.59
2022-10-26T01:02:35.000Z,100428.55
2022-10-26T01:07:34.000Z,100430.43
2022-10-26T01:12:35.000Z,100427.57
2022-10-26T01:17:35.000Z,100423.18
2022-10-26T01:22:34.000Z,100416.64
2022-10-26T01:27:35.000Z,100426.75
2022-10-26T01:32:35.000Z,100422.23
2022-10-26T01:37:34.000Z,100420.82
2022-10-26T01:42:35.000Z,100422.09
2022-10-26T01:47:35.000Z,100418.7
2022-10-26T01:52:35.000Z,100419.9
2022-10-26T01:57:35.000Z,100419.9
2022-10-26T02:02:34.000Z,100421.58
2022-10-26T02:07:35.000Z,100418.99
2022-10-26T02:12:34.000Z,100411.46
2022-10-26T02:17:34.000Z,100414.13
2022-10-26T02:22:35.000Z,100422
2022-10-26T02:27:35.000Z,100418.55
2022-10-26T02:32:35.000Z,100421.94
2022-10-26T02:37:35.000Z,100422.72
2022-10-26T02:42:35.000Z,100423.27
2022-10-26T02:47:35.000Z,100427.59
2022-10-26T02:57:35.000Z,100429.75
2022-10-26T03:02:35.000Z,100425.94
2022-10-26T03:07:35.000Z,100429.21
2022-10-26T03:12:34.000Z,100426.81
2022-10-26T03:17:35.000Z,100423.85
2022-10-26T03:22:35.000Z,100422.99
2022-10-26T03:27:34.000Z,100415.67
2022-10-26T03:32:35.000Z,100415.67
2022-10-26T03:37:35.000Z,100408.83
2022-10-26T03:42:35.000Z,100413.58
2022-10-26T03:47:35.000Z,100412.64
2022-10-26T03:52:34.000Z,100414.71
2022-10-26T03:57:35.000Z,100421.47
2022-10-26T04:02:35.000Z,100422.41
2022-10-26T04:07:35.000Z,100416.29
2022-10-26T04:12:34.000Z,100416.14
2022-10-26T04:22:35.000Z,100420.05
2022-10-26T04:27:35.000Z,100419.84
2022-10-26T04:32:35.000Z,100424.37
2022-10-26T04:37:35.000Z,100421.83
2022-10-26T04:42:34.000Z,100420.91
2022-10-26T04:47:34.000Z,100419.87
2022-10-26T04:52:35.000Z,100426.74
2022-10-26T04:57:35.000Z,100427.5
2022-10-26T05:02:35.000Z,100422.88
2022-10-26T05:07:35.000Z,100422.11
2022-10-26T05:12:34.000Z,100422.37
2022-10-26T05:22:35.000Z,100428.02
2022-10-26T05:27:35.000Z,100428.12
2022-10-26T05:32:35.000Z,100428.12
2022-10-26T05:37:35.000Z,100422.06
2022-10-26T05:42:35.000Z,100413.37
2022-10-26T05:47:35.000Z,100411.52
2022-10-26T05:52:35.000Z,100398.86
2022-10-26T05:57:35.000Z,100408.12
2022-10-26T06:02:35.000Z,100409.11
2022-10-26T06:07:34.000Z,100415.98
2022-10-26T06:12:34.000Z,100417.63
2022-10-26T06:17:35.000Z,100421.13
2022-10-26T06:22:35.000Z,100428.42
2022-10-26T06:27:35.000Z,100430.17
2022-10-26T06:32:34.000Z,100432.37
2022-10-26T06:37:34.000Z,100437.65
2022-10-26T06:47:35.000Z,100447.21
2022-10-26T06:52:35.000Z,100441.39
2022-10-26T06:57:34.000Z,100436.61
2022-10-26T07:02:35.000Z,100436.27
2022-10-26T07:07:35.000Z,100431.76
2022-10-26T07:12:36.000Z,100430.76
2022-10-26T07:17:35.000Z,100430.76
2022-10-26T07:22:35.000Z,100436.98
2022-10-26T07:27:34.000Z,100437.38
2022-10-26T07:32:35.000Z,100439.45
2022-10-26T07:37:35.000Z,100442.23
2022-10-26T07:42:34.000Z,100440.04
2022-10-26T07:47:34.000Z,100440.5
2022-10-26T07:52:35.000Z,100444.73
2022-10-26T07:57:35.000Z,100445.33
2022-10-26T08:02:35.000Z,100448
2022-10-26T08:07:34.000Z,100442.37
2022-10-26T08:12:35.000Z,100441.89
2022-10-26T08:17:34.000Z,100440.71
2022-10-26T08:22:34.000Z,100442.26
2022-10-26T08:27:35.000Z,100441.28
2022-10-26T08:32:35.000Z,100435.33
2022-10-26T08:37:34.000Z,100435.33
2022-10-26T08:42:34.000Z,100434.58
2022-10-26T08:47:35.000Z,100432.38
2022-10-26T08:52:35.000Z,100430.02
2022-10-26T08:57:35.000Z,100429.53
2022-10-26T09:02:35.000Z,100422.13
2022-10-26T09:07:35.000Z,100420.68
2022-10-26T09:12:34.000Z,100427.64
2022-10-26T09:17:34.000Z,100422.87
2022-10-26T09:22:35.000Z,100428.26
2022-10-26T09:27:34.000Z,100427.94
2022-10-26T09:32:35.000Z,100427.42
2022-10-26T09:37:34.000Z,100427.48
2022-10-26T09:42:35.000Z,100429.36
2022-10-26T09:47:34.000Z,100422.76
2022-10-26T09:52:35.000Z,100422.76
2022-10-26T09:57:34.000Z,100418.34
2022-10-26T10:02:35.000Z,100417.72
2022-10-26T10:07:35.000Z,100420.1
2022-10-26T10:12:35.000Z,100419.02
2022-10-26T10:17:34.000Z,100419.12
2022-10-26T10:22:34.000Z,100417.71
2022-10-26T10:32:35.000Z,100417.45
2022-10-26T10:37:35.000Z,100413.54
2022-10-26T10:42:35.000Z,100414.56
2022-10-26T10:47:34.000Z,100405.47
2022-10-26T10:52:35.000Z,100413.62
2022-10-26T10:57:34.000Z,100413.62
2022-10-26T11:02:35.000Z,100417.7
2022-10-26T11:07:35.000Z,100421.85
2022-10-26T11:17:34.000Z,100424.85
2022-10-26T11:22:35.000Z,100424.13
2022-10-26T11:27:34.000Z,100416.42
2022-10-26T11:32:35.000Z,100420.07
2022-10-26T11:37:34.000Z,100420.72
2022-10-26T11:42:35.000Z,100417.69
2022-10-26T11:47:34.000Z,100414.3
2022-10-26T11:52:35.000Z,100414.38
2022-10-26T11:57:35.000Z,100414.53
2022-10-26T12:02:35.000Z,100409.47
2022-10-26T12:12:35.000Z,100408.19
2022-10-26T12:17:35.000Z,100405.82
2022-10-26T12:22:35.000Z,100401.18
2022-10-26T12:27:34.000Z,100401.48
2022-10-26T12:32:35.000Z,100400.39
2022-10-26T12:37:35.000Z,100401.95
2022-10-26T12:42:35.000Z,100396.76
2022-10-26T12:47:34.000Z,100397.47
2022-10-26T12:52:34.000Z,100391.76
2022-10-26T12:57:35.000Z,100385.63
2022-10-26T13:02:35.000Z,100385.63
2022-10-26T13:07:34.000Z,100387.47
2022-10-26T13:12:35.000Z,100383.35
2022-10-26T13:17:35.000Z,100382.93
2022-10-26T13:22:35.000Z,100386.03
2022-10-26T13:27:35.000Z,100385.37
2022-10-26T13:32:34.000Z,100384.02
2022-10-26T13:37:35.000Z,100385.19
2022-10-26T13:47:35.000Z,100388.78
2022-10-26T13:57:35.000Z,100387.31
2022-10-26T14:02:34.000Z,100387.9
2022-10-26T14:07:35.000Z,100387.9
2022-10-26T14:12:35.000Z,100389.1
2022-10-26T14:17:34.000Z,100393.35
2022-10-26T14:22:34.000Z,100395.88
2022-10-26T14:27:35.000Z,100395.87
2022-10-26T14:32:35.000Z,100396.17
2022-10-26T14:37:34.000Z,100397.39
2022-10-26T14:42:35.000Z,100400.6
2022-10-26T14:47:35.000Z,100395.09
2022-10-26T14:52:40.000Z,100396.97
2022-10-26T14:57:34.000Z,100399.49
2022-10-26T15:02:35.000Z,100398.98
2022-10-26T15:07:35.000Z,100402.55
2022-10-26T15:12:34.000Z,100400.44
2022-10-26T15:17:35.000Z,100399.56
2022-10-26T15:22:41.000Z,100399.56
2022-10-26T15:27:34.000Z,100397.89
2022-10-26T15:37:35.000Z,100394.01
2022-10-26T15:42:35.000Z,100395.86
2022-10-26T15:52:34.000Z,100393.96
2022-10-26T15:57:35.000Z,100392.74
2022-10-26T16:02:35.000Z,100393.5
2022-10-26T16:07:34.000Z,100397.97
2022-10-26T16:12:35.000Z,100398.46
2022-10-26T16:17:34.000Z,100396.22
2022-10-26T16:22:34.000Z,100395.2
2022-10-26T16:27:35.000Z,100391.71
2022-10-26T16:32:34.000Z,100391.71
2022-10-26T16:37:34.000Z,100391.17
2022-10-26T16:42:35.000Z,100391.74
2022-10-26T16:47:35.000Z,100388.2
2022-10-26T16:52:35.000Z,100384.4
2022-10-26T16:57:35.000Z,100382.33
2022-10-26T17:02:35.000Z,100379.48
2022-10-26T17:07:34.000Z,100379.91
2022-10-26T17:12:34.000Z,100374.9
2022-10-26T17:22:35.000Z,100373.58
2022-10-26T17:27:35.000Z,100373.14
2022-10-26T17:32:35.000Z,100372.24
2022-10-26T17:37:35.000Z,100370.19
2022-10-26T17:42:35.000Z,100366.69
2022-10-26T17:47:35.000Z,100357.31
2022-10-26T17:52:35.000Z,100360.34
2022-10-26T17:57:34.000Z,100358.52
2022-10-26T18:02:35.000Z,100360.62
2022-10-26T18:07:35.000Z,100359.53
2022-10-26T18:12:35.000Z,100364.59
2022-10-26T18:17:34.000Z,100365.98
2022-10-26T18:22:34.000Z,100367.2
2022-10-26T18:27:34.000Z,100367.2
2022-10-26T18:32:34.000Z,100368.66
2022-10-26T18:37:34.000Z,100368.59
2022-10-26T18:42:35.000Z,100368.95
2022-10-26T18:47:35.000Z,100371.75
2022-10-26T18:52:35.000Z,100370.97
2022-10-26T18:57:35.000Z,100369.57
2022-10-26T19:02:35.000Z,100370.05
2022-10-26T19:07:34.000Z,100369.63
2022-10-26T19:12:35.000Z,100361.84
2022-10-26T19:17:35.000Z,100369.21
2022-10-26T19:22:35.000Z,100366.71
2022-10-26T19:27:34.000Z,100365.51
2022-10-26T19:32:34.000Z,100369.14
2022-10-26T19:37:38.000Z,100373.71
2022-10-26T19:42:34.000Z,100373.71
2022-10-26T19:47:35.000Z,100369.23
2022-10-26T19:52:35.000Z,100372.98
2022-10-26T19:57:35.000Z,100369.43
2022-10-26T20:02:35.000Z,100371.5
2022-10-26T20:07:35.000Z,100369.83
2022-10-26T20:12:35.000Z,100367.02
2022-10-26T20:17:38.000Z,100361.71
2022-10-26T20:22:35.000Z,100353.63
2022-10-26T20:27:35.000Z,100351.93
2022-10-26T20:32:35.000Z,100349.26
2022-10-26T20:37:35.000Z,100345.91
2022-10-26T20:42:35.000Z,100344.15
2022-10-26T20:47:34.000Z,100341.55
2022-10-26T20:52:35.000Z,100340.95
2022-10-26T20:57:34.000Z,100340.95
2022-10-26T21:02:34.000Z,100342.02
2022-10-26T21:07:35.000Z,100339.65
2022-10-26T21:12:34.000Z,100335.42
2022-10-26T21:17:34.000Z,100330.44
2022-10-26T21:22:35.000Z,100332.33
2022-10-26T21:27:35.000Z,100328.45
2022-10-26T21:32:35.000Z,100324.12
2022-10-26T21:37:35.000Z,100320.77
2022-10-26T21:42:35.000Z,100319.53
2022-10-26T21:47:35.000Z,100319.98
2022-10-26T21:52:34.000Z,100323.09
2022-10-26T21:57:35.000Z,100324.89
2022-10-26T22:02:34.000Z,100322.65
2022-10-26T22:07:35.000Z,100319.75
2022-10-26T22:12:35.000Z,100319.75
2022-10-26T22:17:34.000Z,100319.64
2022-10-26T22:22:34.000Z,100320.58
2022-10-26T22:27:34.000Z,100320.24
2022-10-26T22:32:34.000Z,100317.69
2022-10-26T22:37:35.000Z,100316.14
2022-10-26T22:42:35.000Z,100313.68
2022-10-26T22:47:34.000Z,100311.96
2022-10-26T22:52:35.000Z,100311.19
2022-10-26T22:57:34.000Z,100311.57
2022-10-26T23:02:35.000Z,100309.15
2022-10-26T23:07:35.000Z,100310.98
2022-10-26T23:12:34.000Z,100311.76
2022-10-26T23:17:35.000Z,100310.98
2022-10-26T23:22:34.000Z,100310.06
2022-10-26T23:27:35.000Z,100310.06
2022-10-26T23:32:34.000Z,100302.28
2022-10-26T23:37:35.000Z,100303.27
2022-10-26T23:42:34.000Z,100304.82
2022-10-26T23:47:35.000Z,100304.89
2022-10-26T23:52:34.000Z,100303.58
2022-10-26T23:57:35.000Z,100296.72
